createdAt,value
2018-06-29T04:00:56.145Z,176.00
2018-06-29T04:01:56.050Z,176.00
2018-06-29T04:03:48.705Z,176.00
2018-06-29T04:04:48.665Z,176.00
2018-06-29T04:06:41.300Z,176.00
2018-06-29T04:07:41.174Z,176.00
2018-06-29T04:09:33.850Z,176.00
2018-06-29T04:10:34.032Z,176.00
2018-06-29T04:12:26.451Z,176.00
2018-06-29T04:13:26.322Z,176.00
2018-06-29T04:15:19.022Z,176.00
2018-06-29T04:16:18.900Z,176.00
2018-06-29T04:18:11.586Z,176.00
2018-06-29T04:19:11.477Z,176.00
2018-06-29T04:21:04.194Z,176.00
2018-06-29T04:22:04.057Z,176.00
2018-06-29T04:23:56.743Z,176.00
2018-06-29T04:24:56.640Z,176.00
2018-06-29T04:26:49.369Z,176.00
2018-06-29T04:27:49.217Z,176.00
2018-06-29T04:29:41.903Z,176.00
2018-06-29T04:30:41.799Z,176.00
2018-06-29T04:32:34.499Z,176.00
2018-06-29T04:33:34.372Z,176.00
2018-06-29T04:35:27.051Z,176.00
2018-06-29T04:36:26.947Z,176.00
2018-06-29T04:38:19.650Z,176.00
2018-06-29T04:39:19.513Z,176.00
2018-06-29T04:41:12.195Z,176.00
2018-06-29T04:42:12.088Z,176.00
2018-06-29T04:44:04.783Z,176.00
2018-06-29T04:45:04.661Z,176.00
2018-06-29T04:46:57.341Z,176.00
2018-06-29T04:47:57.238Z,176.00
2018-06-29T04:49:49.931Z,176.00
2018-06-29T04:50:49.807Z,176.00
2018-06-29T04:52:42.489Z,176.00
2018-06-29T04:53:42.385Z,176.00
2018-06-29T04:55:35.079Z,176.00
2018-06-29T04:56:34.969Z,176.00
2018-06-29T04:58:27.652Z,176.00
2018-06-29T04:59:27.544Z,176.00
2018-06-29T05:01:20.241Z,176.00
2018-06-29T05:02:20.115Z,176.00
2018-06-29T05:04:12.796Z,176.00
2018-06-29T05:05:12.698Z,176.00
2018-06-29T05:07:05.391Z,176.00
2018-06-29T05:08:05.278Z,176.00
2018-06-29T05:09:57.944Z,176.00
2018-06-29T05:10:57.896Z,176.00
2018-06-29T05:12:50.542Z,176.00
2018-06-29T05:13:50.427Z,176.00
2018-06-29T05:15:43.105Z,176.00
2018-06-29T05:16:42.996Z,176.00
2018-06-29T05:18:35.701Z,176.00
2018-06-29T05:19:35.581Z,176.00
2018-06-29T05:21:28.259Z,176.00
2018-06-29T05:22:28.156Z,176.00
2018-06-29T05:24:20.860Z,176.00
2018-06-29T05:25:20.735Z,176.00
2018-06-29T05:27:13.412Z,176.00
2018-06-29T05:28:13.303Z,176.00
2018-06-29T05:30:06.005Z,176.00
2018-06-29T05:31:05.882Z,176.00
2018-06-29T05:32:58.564Z,176.00
2018-06-29T05:33:58.459Z,176.00
2018-06-29T05:35:51.178Z,176.00
2018-06-29T05:36:51.049Z,176.00
2018-06-29T05:38:43.725Z,176.00
2018-06-29T05:39:43.620Z,176.00
2018-06-29T05:41:36.517Z,176.00
2018-06-29T05:42:36.242Z,176.00
2018-06-29T05:44:28.882Z,176.00
2018-06-29T05:45:28.781Z,176.00
2018-06-29T05:47:21.486Z,176.00
2018-06-29T05:48:21.358Z,176.00
2018-06-29T05:50:14.048Z,176.00
2018-06-29T05:51:13.938Z,176.00
2018-06-29T05:53:06.699Z,176.00
2018-06-29T05:54:06.516Z,176.00
2018-06-29T05:55:59.202Z,176.00
2018-06-29T05:56:59.100Z,176.00
2018-06-29T05:58:51.804Z,176.00
2018-06-29T05:59:51.682Z,176.00
2018-06-29T06:01:44.364Z,176.00
2018-06-29T06:02:44.263Z,176.00
2018-06-29T06:04:37.024Z,176.00
2018-06-29T06:05:36.842Z,176.00
2018-06-29T06:07:29.524Z,176.00
2018-06-29T06:08:29.425Z,176.00
2018-06-29T06:10:22.129Z,176.00
2018-06-29T06:11:22.005Z,176.00
2018-06-29T06:13:14.704Z,176.00
2018-06-29T06:14:14.602Z,176.00
2018-06-29T06:16:07.345Z,176.00
2018-06-29T06:17:07.168Z,176.00
2018-06-29T06:18:59.859Z,59584.00
2018-06-29T06:19:59.764Z,63104.00
2018-06-29T06:21:52.525Z,65024.00
2018-06-29T06:22:52.357Z,63584.00
2018-06-29T06:24:45.053Z,63136.00
2018-06-29T06:25:44.961Z,65056.00
2018-06-29T06:27:37.673Z,66144.00
2018-06-29T06:28:37.564Z,66560.00
2018-06-29T06:30:30.276Z,74272.00
2018-06-29T06:31:30.184Z,77696.00
2018-06-29T06:33:22.934Z,72608.00
2018-06-29T06:34:22.799Z,73952.00
2018-06-29T06:36:15.511Z,70240.00
2018-06-29T06:37:15.418Z,69632.00
2018-06-29T06:39:08.149Z,76736.00
2018-06-29T06:40:08.048Z,79392.00
2018-06-29T06:42:00.760Z,80416.00
2018-06-29T06:43:00.674Z,79648.00
2018-06-29T06:44:53.405Z,71264.00
2018-06-29T06:45:53.301Z,73376.00
2018-06-29T06:47:46.039Z,78432.00
2018-06-29T06:48:45.939Z,79872.00
2018-06-29T06:50:38.666Z,82560.00
2018-06-29T06:51:38.568Z,85504.00
2018-06-29T06:53:31.356Z,71424.00
2018-06-29T06:54:31.192Z,78944.00
2018-06-29T06:56:23.911Z,84000.00
2018-06-29T06:57:23.829Z,80768.00
2018-06-29T06:59:16.563Z,88224.00
2018-06-29T07:00:16.465Z,79040.00
2018-06-29T07:02:09.184Z,82464.00
2018-06-29T07:03:09.092Z,80320.00
2018-06-29T07:05:01.834Z,85952.00
2018-06-29T07:06:01.735Z,84384.00
2018-06-29T07:07:54.454Z,83232.00
2018-06-29T07:08:54.370Z,87680.00
2018-06-29T07:10:47.141Z,91104.00
2018-06-29T07:11:47.008Z,91840.00
2018-06-29T07:13:39.752Z,92192.00
2018-06-29T07:14:39.643Z,86720.00
2018-06-29T07:16:32.366Z,91392.00
2018-06-29T07:17:32.275Z,86368.00
2018-06-29T07:19:25.017Z,91360.00
2018-06-29T07:20:24.907Z,93184.00
2018-06-29T07:22:17.623Z,96640.00
2018-06-29T07:23:17.540Z,96064.00
2018-06-29T07:25:10.284Z,85216.00
2018-06-29T07:26:10.180Z,91584.00
2018-06-29T07:28:02.904Z,100512.00
2018-06-29T07:29:02.822Z,95168.00
2018-06-29T07:30:55.588Z,85088.00
2018-06-29T07:31:55.467Z,84608.00
2018-06-29T07:33:48.189Z,82432.00
2018-06-29T07:34:48.113Z,79552.00
2018-06-29T07:36:40.856Z,79456.00
2018-06-29T07:37:40.748Z,79136.00
2018-06-29T07:39:33.471Z,81408.00
2018-06-29T07:40:33.393Z,83008.00
2018-06-29T07:42:26.139Z,80192.00
2018-06-29T07:43:26.039Z,81184.00
2018-06-29T07:45:18.757Z,84256.00
2018-06-29T07:46:18.680Z,89024.00
2018-06-29T07:48:11.420Z,82048.00
2018-06-29T07:49:11.318Z,82496.00
2018-06-29T07:51:04.051Z,86400.00
2018-06-29T07:52:03.968Z,86304.00
2018-06-29T07:53:56.710Z,83616.00
2018-06-29T07:54:56.599Z,84384.00
2018-06-29T07:56:49.325Z,80416.00
2018-06-29T07:57:49.241Z,79904.00
2018-06-29T07:59:42.005Z,88672.00
2018-06-29T08:00:41.880Z,89248.00
2018-06-29T08:02:34.634Z,87200.00
2018-06-29T08:03:34.524Z,86400.00
2018-06-29T08:05:27.272Z,81312.00
2018-06-29T08:06:27.164Z,82912.00
2018-06-29T08:08:19.890Z,94976.00
2018-06-29T08:09:19.808Z,96288.00
2018-06-29T08:11:12.558Z,91008.00
2018-06-29T08:12:12.446Z,88128.00
2018-06-29T08:14:05.168Z,86848.00
2018-06-29T08:15:05.095Z,88512.00
2018-06-29T08:16:57.876Z,86528.00
2018-06-29T08:17:57.728Z,86656.00
2018-06-29T08:19:50.458Z,88800.00
2018-06-29T08:20:50.373Z,84352.00
2018-06-29T08:22:43.116Z,76128.00
2018-06-29T08:23:43.015Z,82400.00
2018-06-29T08:25:35.742Z,92512.00
2018-06-29T08:26:35.662Z,89440.00
2018-06-29T08:28:28.403Z,80416.00
2018-06-29T08:29:28.307Z,80704.00
2018-06-29T08:31:21.032Z,89152.00
2018-06-29T08:32:20.949Z,91488.00
2018-06-29T08:34:13.691Z,85312.00
2018-06-29T08:35:13.592Z,82432.00
2018-06-29T08:37:06.310Z,85952.00
2018-06-29T08:38:06.231Z,86752.00
2018-06-29T08:39:58.972Z,84096.00
2018-06-29T08:40:58.866Z,84704.00
2018-06-29T08:42:51.619Z,78592.00
2018-06-29T08:43:51.507Z,75968.00
2018-06-29T08:45:44.230Z,86912.00
2018-06-29T08:46:44.176Z,86304.00
2018-06-29T08:48:36.881Z,78592.00
2018-06-29T08:49:36.808Z,74720.00
2018-06-29T08:51:29.492Z,70880.00
2018-06-29T08:52:29.410Z,48864.00
2018-06-29T08:54:22.155Z,14020.00
2018-06-29T08:55:22.048Z,11064.00
2018-06-29T08:57:14.757Z,8292.00
2018-06-29T08:58:14.670Z,7408.00
2018-06-29T09:00:07.405Z,6392.00
2018-06-29T09:01:07.302Z,5904.00
2018-06-29T09:03:00.010Z,5448.00
2018-06-29T09:03:59.915Z,5340.00
2018-06-29T09:05:52.649Z,5236.00
2018-06-29T09:06:52.530Z,5164.00
2018-06-29T09:08:45.236Z,5104.00
2018-06-29T09:09:45.140Z,5020.00
2018-06-29T09:11:37.871Z,5028.00
2018-06-29T09:12:37.752Z,5024.00
2018-06-29T09:14:30.450Z,5080.00
2018-06-29T09:15:30.382Z,5068.00
2018-06-29T09:17:23.077Z,4996.00
2018-06-29T09:18:22.962Z,4992.00
2018-06-29T09:20:15.663Z,5032.00
2018-06-29T09:21:15.568Z,5008.00
2018-06-29T09:23:08.282Z,4984.00
2018-06-29T09:24:08.168Z,4972.00
2018-06-29T09:26:00.866Z,5012.00
2018-06-29T09:27:00.776Z,5028.00
2018-06-29T09:28:53.494Z,5048.00
2018-06-29T09:29:53.435Z,5044.00
2018-06-29T09:31:46.073Z,4988.00
2018-06-29T09:32:45.978Z,4972.00
2018-06-29T09:34:38.696Z,5112.00
2018-06-29T09:35:38.576Z,5128.00
2018-06-29T09:37:31.275Z,5108.00
2018-06-29T09:38:31.180Z,5060.00
2018-06-29T09:40:23.888Z,5068.00
2018-06-29T09:41:23.776Z,5120.00
2018-06-29T09:43:16.470Z,5128.00
2018-06-29T09:44:16.373Z,5172.00
2018-06-29T09:46:09.088Z,5172.00
2018-06-29T09:47:08.971Z,5124.00
2018-06-29T09:49:01.659Z,5048.00
2018-06-29T09:50:01.574Z,5020.00
2018-06-29T09:51:54.428Z,4916.00
2018-06-29T09:52:54.164Z,4856.00
2018-06-29T09:54:46.862Z,4828.00
2018-06-29T09:55:46.765Z,4828.00
2018-06-29T09:57:39.484Z,4872.00
2018-06-29T09:58:39.370Z,4864.00
2018-06-29T10:00:32.081Z,4780.00
2018-06-29T10:01:32.140Z,4740.00
2018-06-29T10:03:24.683Z,4652.00
2018-06-29T10:04:24.566Z,4624.00
2018-06-29T10:06:17.260Z,4640.00
2018-06-29T10:07:17.163Z,4648.00
2018-06-29T10:09:09.886Z,4676.00
2018-06-29T10:10:09.778Z,4676.00
2018-06-29T10:12:02.621Z,4684.00
2018-06-29T10:13:02.372Z,4688.00
2018-06-29T10:14:55.087Z,4640.00
2018-06-29T10:15:54.971Z,4608.00
2018-06-29T10:17:47.683Z,4572.00
2018-06-29T10:18:47.567Z,4564.00
2018-06-29T10:20:40.266Z,4548.00
2018-06-29T10:21:40.168Z,4528.00
2018-06-29T10:23:32.882Z,4480.00
2018-06-29T10:24:32.767Z,4444.00
2018-06-29T10:26:25.462Z,4468.00
2018-06-29T10:27:25.362Z,4484.00
2018-06-29T10:29:18.082Z,4536.00
2018-06-29T10:30:17.969Z,4504.00
2018-06-29T10:32:10.688Z,4392.00
2018-06-29T10:33:10.575Z,4384.00
2018-06-29T10:35:03.258Z,4368.00
2018-06-29T10:36:03.175Z,4348.00
2018-06-29T10:37:55.874Z,4324.00
2018-06-29T10:38:55.774Z,4328.00
2018-06-29T10:40:48.465Z,4328.00
2018-06-29T10:41:48.371Z,4288.00
2018-06-29T10:43:41.094Z,4244.00
2018-06-29T10:44:41.043Z,4248.00
2018-06-29T10:46:33.661Z,4236.00
2018-06-29T10:47:33.570Z,4236.00
2018-06-29T10:49:26.331Z,4208.00
2018-06-29T10:50:26.162Z,4224.00
2018-06-29T10:52:18.858Z,4172.00
2018-06-29T10:53:18.764Z,4152.00
2018-06-29T10:55:11.496Z,4168.00
2018-06-29T10:56:11.360Z,4156.00
2018-06-29T10:58:04.064Z,4180.00
2018-06-29T10:59:04.024Z,4160.00
2018-06-29T11:00:56.683Z,4088.00
2018-06-29T11:01:56.567Z,4088.00
2018-06-29T11:03:49.268Z,4080.00
2018-06-29T11:04:49.172Z,4084.00
2018-06-29T11:06:41.889Z,4076.00
2018-06-29T11:07:41.770Z,4044.00
2018-06-29T11:09:34.458Z,4012.00
2018-06-29T11:10:34.366Z,3964.00
2018-06-29T11:12:27.072Z,3952.00
2018-06-29T11:13:26.953Z,3952.00
2018-06-29T11:15:19.654Z,3960.00
2018-06-29T11:16:19.556Z,3992.00
2018-06-29T11:18:12.280Z,4064.00
2018-06-29T11:19:12.164Z,4100.00
2018-06-29T11:21:05.357Z,4132.00
2018-06-29T11:22:05.265Z,4148.00
2018-06-29T11:23:57.975Z,4188.00
2018-06-29T11:24:57.862Z,4200.00
2018-06-29T11:26:50.552Z,4200.00
2018-06-29T11:27:50.458Z,4212.00
2018-06-29T11:29:43.169Z,4216.00
2018-06-29T11:30:43.051Z,4192.00
2018-06-29T11:32:35.744Z,4180.00
2018-06-29T11:33:35.653Z,4196.00
2018-06-29T11:35:28.368Z,4244.00
2018-06-29T11:36:28.249Z,4252.00
2018-06-29T11:38:20.943Z,4272.00
2018-06-29T11:39:20.846Z,4224.00
2018-06-29T11:41:13.634Z,4212.00
2018-06-29T11:42:13.513Z,4204.00
2018-06-29T11:44:06.253Z,4188.00
2018-06-29T11:45:06.108Z,4160.00
2018-06-29T11:46:58.844Z,4128.00
2018-06-29T11:47:58.733Z,4144.00
2018-06-29T11:49:51.427Z,4160.00
2018-06-29T11:50:51.324Z,4204.00
2018-06-29T11:52:44.039Z,4280.00
2018-06-29T11:53:43.927Z,4304.00
2018-06-29T11:55:36.620Z,4288.00
2018-06-29T11:56:36.520Z,4292.00
2018-06-29T11:58:29.248Z,4312.00
2018-06-29T11:59:29.114Z,4300.00
2018-06-29T12:01:21.807Z,4268.00
2018-06-29T12:02:21.714Z,4320.00
2018-06-29T12:04:14.435Z,4364.00
2018-06-29T12:05:14.316Z,4384.00
2018-06-29T12:07:07.061Z,4432.00
2018-06-29T12:08:06.914Z,4412.00
2018-06-29T12:09:59.623Z,4392.00
2018-06-29T12:10:59.509Z,4432.00
2018-06-29T12:12:52.202Z,4468.00
2018-06-29T12:13:52.110Z,4612.00
2018-06-29T12:15:44.816Z,4456.00
2018-06-29T12:16:44.701Z,4436.00
2018-06-29T12:18:37.402Z,4368.00
2018-06-29T12:19:37.300Z,4376.00
2018-06-29T12:21:30.022Z,4384.00
2018-06-29T12:22:29.898Z,4364.00
2018-06-29T12:24:22.612Z,4328.00
2018-06-29T12:25:22.552Z,4328.00
2018-06-29T12:27:15.203Z,4304.00
2018-06-29T12:28:15.174Z,4272.00
2018-06-29T12:30:07.896Z,4216.00
2018-06-29T12:31:07.788Z,4216.00
2018-06-29T12:33:00.475Z,4232.00
2018-06-29T12:34:00.381Z,4244.00
2018-06-29T12:35:53.628Z,4232.00
2018-06-29T12:36:53.512Z,4224.00
2018-06-29T12:38:46.214Z,4232.00
2018-06-29T12:39:46.113Z,4228.00
2018-06-29T12:41:38.876Z,4196.00
2018-06-29T12:42:38.735Z,4196.00
2018-06-29T12:44:31.436Z,4196.00
2018-06-29T12:45:31.317Z,4200.00
2018-06-29T12:47:24.018Z,4188.00
2018-06-29T12:48:23.918Z,4184.00
2018-06-29T12:50:16.643Z,4144.00
2018-06-29T12:51:16.512Z,4116.00
2018-06-29T12:53:09.210Z,4108.00
2018-06-29T12:54:09.128Z,4076.00
2018-06-29T12:56:02.975Z,4044.00
2018-06-29T12:57:02.210Z,4044.00
2018-06-29T12:58:54.894Z,4032.00
2018-06-29T12:59:54.866Z,4024.00
2018-06-29T13:01:47.516Z,4020.00
2018-06-29T13:02:47.395Z,4016.00
2018-06-29T13:04:40.093Z,4024.00
2018-06-29T13:05:40.091Z,3984.00
2018-06-29T13:07:32.731Z,4020.00
2018-06-29T13:08:32.590Z,4020.00
2018-06-29T13:10:25.292Z,4004.00
2018-06-29T13:11:25.195Z,3996.00
2018-06-29T13:13:17.907Z,3988.00
2018-06-29T13:14:17.821Z,3976.00
2018-06-29T13:16:10.626Z,3960.00
2018-06-29T13:17:10.387Z,3972.00
2018-06-29T13:19:03.101Z,3976.00
2018-06-29T13:20:02.988Z,3964.00
2018-06-29T13:21:55.716Z,3928.00
2018-06-29T13:22:55.588Z,3904.00
2018-06-29T13:24:48.338Z,3928.00
2018-06-29T13:25:48.189Z,3928.00
2018-06-29T13:27:41.128Z,3892.00
2018-06-29T13:28:40.894Z,3880.00
2018-06-29T13:30:33.485Z,3896.00
2018-06-29T13:31:33.395Z,3888.00
2018-06-29T13:33:26.101Z,3884.00
2018-06-29T13:34:25.988Z,3888.00
2018-06-29T13:36:18.764Z,3888.00
2018-06-29T13:37:18.593Z,3892.00
2018-06-29T13:39:11.303Z,3888.00
2018-06-29T13:40:11.184Z,3888.00
2018-06-29T13:42:04.024Z,3844.00
2018-06-29T13:43:03.785Z,3836.00
2018-06-29T13:44:56.496Z,3852.00
2018-06-29T13:45:56.383Z,3848.00
2018-06-29T13:47:49.076Z,3824.00
2018-06-29T13:48:48.975Z,3824.00
2018-06-29T13:50:41.689Z,3808.00
2018-06-29T13:51:41.571Z,3796.00
2018-06-29T13:53:34.276Z,3788.00
2018-06-29T13:54:34.174Z,3772.00
2018-06-29T13:56:26.888Z,3744.00
2018-06-29T13:57:26.774Z,3748.00
2018-06-29T13:59:19.497Z,3788.00
2018-06-29T14:00:19.379Z,3788.00
2018-06-29T14:02:12.076Z,3812.00
2018-06-29T14:03:12.131Z,3832.00
2018-06-29T14:05:04.699Z,3828.00
2018-06-29T14:06:04.584Z,3828.00
2018-06-29T14:07:57.419Z,3800.00
2018-06-29T14:08:57.366Z,3804.00
2018-06-29T14:10:50.095Z,3804.00
2018-06-29T14:11:49.931Z,3780.00
2018-06-29T14:13:42.629Z,3788.00
2018-06-29T14:14:42.533Z,3784.00
2018-06-29T14:16:35.248Z,3780.00
2018-06-29T14:17:35.136Z,3752.00
2018-06-29T14:19:27.825Z,3720.00
2018-06-29T14:20:27.735Z,3728.00
2018-06-29T14:22:20.450Z,3756.00
2018-06-29T14:23:20.328Z,3764.00
2018-06-29T14:25:13.027Z,3756.00
2018-06-29T14:26:12.927Z,3756.00
2018-06-29T14:28:05.713Z,3752.00
2018-06-29T14:29:05.719Z,3772.00
2018-06-29T14:30:58.289Z,3804.00
2018-06-29T14:31:58.197Z,3824.00
2018-06-29T14:33:50.909Z,3840.00
2018-06-29T14:34:50.798Z,3824.00
2018-06-29T14:36:43.516Z,3804.00
2018-06-29T14:37:43.402Z,3800.00
2018-06-29T14:39:36.090Z,3824.00
2018-06-29T14:40:35.996Z,3812.00
2018-06-29T14:42:28.702Z,3788.00
2018-06-29T14:43:28.599Z,3788.00
2018-06-29T14:45:21.285Z,3800.00
2018-06-29T14:46:21.243Z,3808.00
2018-06-29T14:48:13.911Z,3796.00
2018-06-29T14:49:13.812Z,3792.00
2018-06-29T14:51:06.491Z,3800.00
2018-06-29T14:52:06.391Z,3800.00
2018-06-29T14:53:59.109Z,3788.00
2018-06-29T14:54:58.990Z,3780.00
2018-06-29T14:56:51.710Z,3732.00
2018-06-29T14:57:51.596Z,3720.00
2018-06-29T14:59:44.297Z,3748.00
2018-06-29T15:00:44.197Z,3748.00
2018-06-29T15:02:36.912Z,3736.00
2018-06-29T15:03:36.794Z,3728.00
2018-06-29T15:05:29.501Z,3756.00
2018-06-29T15:06:29.397Z,3760.00
2018-06-29T15:08:22.109Z,3760.00
2018-06-29T15:09:22.026Z,3748.00
2018-06-29T15:11:14.715Z,3744.00
2018-06-29T15:12:14.599Z,3740.00
2018-06-29T15:14:07.305Z,3744.00
2018-06-29T15:15:07.212Z,3752.00
2018-06-29T15:16:59.929Z,3744.00
2018-06-29T15:17:59.821Z,3752.00
2018-06-29T15:19:52.519Z,3768.00
2018-06-29T15:20:52.419Z,3764.00
2018-06-29T15:22:45.136Z,3760.00
2018-06-29T15:23:45.080Z,3760.00
2018-06-29T15:25:37.720Z,3744.00
2018-06-29T15:26:37.625Z,3748.00
2018-06-29T15:28:30.336Z,3732.00
2018-06-29T15:29:30.222Z,3728.00
2018-06-29T15:31:22.961Z,3724.00
2018-06-29T15:32:22.824Z,3732.00
2018-06-29T15:34:15.542Z,3756.00
2018-06-29T15:35:15.425Z,3760.00
2018-06-29T15:37:08.157Z,3744.00
2018-06-29T15:38:08.031Z,3744.00
2018-06-29T15:40:00.799Z,3752.00
2018-06-29T15:41:00.691Z,3756.00
2018-06-29T15:42:53.407Z,3796.00
2018-06-29T15:43:53.293Z,3796.00
2018-06-29T15:45:45.995Z,3808.00
2018-06-29T15:46:45.895Z,3812.00
2018-06-29T15:48:38.620Z,3820.00
2018-06-29T15:49:38.507Z,3824.00
2018-06-29T15:51:31.204Z,3828.00
2018-06-29T15:52:31.104Z,3824.00
2018-06-29T15:54:23.818Z,3780.00
2018-06-29T15:55:23.708Z,3784.00
2018-06-29T15:57:16.405Z,3816.00
2018-06-29T15:58:16.301Z,3820.00
2018-06-29T16:00:09.021Z,3808.00
2018-06-29T16:01:08.903Z,3796.00
2018-06-29T16:03:01.599Z,3812.00
2018-06-29T16:04:01.508Z,3824.00
2018-06-29T16:05:54.245Z,3792.00
2018-06-29T16:06:54.117Z,3784.00
2018-06-29T16:08:46.816Z,3764.00
2018-06-29T16:09:46.722Z,3760.00
2018-06-29T16:11:39.438Z,3780.00
2018-06-29T16:12:39.319Z,3788.00
2018-06-29T16:14:32.040Z,3768.00
2018-06-29T16:15:31.922Z,3760.00
2018-06-29T16:17:24.618Z,3732.00
2018-06-29T16:18:24.525Z,3728.00
2018-06-29T16:20:17.240Z,3708.00
2018-06-29T16:21:17.130Z,3708.00
2018-06-29T16:23:09.817Z,3660.00
2018-06-29T16:24:09.725Z,3660.00
2018-06-29T16:26:02.441Z,3684.00
2018-06-29T16:27:02.324Z,3672.00
2018-06-29T16:28:55.025Z,3672.00
2018-06-29T16:29:54.932Z,3668.00
2018-06-29T16:31:47.646Z,3660.00
2018-06-29T16:32:47.531Z,3656.00
2018-06-29T16:34:40.228Z,3648.00
2018-06-29T16:35:40.134Z,3648.00
2018-06-29T16:37:32.891Z,3608.00
2018-06-29T16:38:32.738Z,3604.00
2018-06-29T16:40:25.455Z,3644.00
2018-06-29T16:41:25.397Z,3648.00
2018-06-29T16:43:18.051Z,3632.00
2018-06-29T16:44:17.958Z,3612.00
2018-06-29T16:46:10.628Z,3600.00
2018-06-29T16:47:10.533Z,3588.00
2018-06-29T16:49:03.254Z,3596.00
2018-06-29T16:50:03.130Z,3572.00
2018-06-29T16:51:55.838Z,3552.00
2018-06-29T16:52:55.726Z,3548.00
2018-06-29T16:54:48.437Z,3544.00
2018-06-29T16:55:48.323Z,3532.00
2018-06-29T16:57:41.022Z,3504.00
2018-06-29T16:58:40.918Z,3492.00
2018-06-29T17:00:33.635Z,3500.00
2018-06-29T17:01:33.517Z,3488.00
2018-06-29T17:03:26.217Z,3472.00
2018-06-29T17:04:26.122Z,3472.00
2018-06-29T17:06:18.843Z,3424.00
2018-06-29T17:07:18.720Z,3416.00
2018-06-29T17:09:11.420Z,3432.00
2018-06-29T17:10:11.323Z,3416.00
2018-06-29T17:12:04.043Z,3404.00
2018-06-29T17:13:03.928Z,3400.00
2018-06-29T17:14:56.618Z,3360.00
2018-06-29T17:15:56.521Z,3352.00
2018-06-29T17:17:49.243Z,3352.00
2018-06-29T17:18:49.348Z,3352.00
2018-06-29T17:20:41.830Z,3316.00
2018-06-29T17:21:41.718Z,3308.00
2018-06-29T17:23:34.456Z,3272.00
2018-06-29T17:24:34.326Z,3264.00
2018-06-29T17:26:27.013Z,3256.00
2018-06-29T17:27:26.920Z,3236.00
2018-06-29T17:29:19.656Z,3216.00
2018-06-29T17:30:19.533Z,3212.00
2018-06-29T17:32:12.239Z,3180.00
2018-06-29T17:33:12.146Z,3156.00
2018-06-29T17:35:04.874Z,3120.00
2018-06-29T17:36:04.755Z,3100.00
2018-06-29T17:37:57.462Z,3036.00
2018-06-29T17:38:57.370Z,3036.00
2018-06-29T17:40:50.081Z,3016.00
2018-06-29T17:41:49.969Z,2996.00
2018-06-29T17:43:42.663Z,2980.00
2018-06-29T17:44:42.569Z,2972.00
2018-06-29T17:46:35.308Z,2944.00
2018-06-29T17:47:35.180Z,2924.00
2018-06-29T17:49:27.888Z,2888.00
2018-06-29T17:50:27.769Z,2880.00
2018-06-29T17:52:20.464Z,2832.00
2018-06-29T17:53:20.370Z,2816.00
2018-06-29T17:55:13.106Z,2792.00
2018-06-29T17:56:12.958Z,2784.00
2018-06-29T17:58:05.656Z,2772.00
2018-06-29T17:59:05.554Z,2760.00
2018-06-29T18:00:58.275Z,2704.00
2018-06-29T18:01:58.157Z,2684.00
2018-06-29T18:03:50.847Z,2640.00
2018-06-29T18:04:50.751Z,2616.00
2018-06-29T18:06:43.461Z,2580.00
2018-06-29T18:07:43.346Z,2568.00
2018-06-29T18:09:36.054Z,2520.00
2018-06-29T18:10:35.942Z,2512.00
2018-06-29T18:12:28.654Z,2488.00
2018-06-29T18:13:28.545Z,2456.00
2018-06-29T18:15:21.232Z,2452.00
2018-06-29T18:16:21.136Z,2436.00
2018-06-29T18:18:13.841Z,2412.00
2018-06-29T18:19:13.728Z,2396.00
2018-06-29T18:21:06.424Z,2356.00
2018-06-29T18:22:06.326Z,2336.00
2018-06-29T18:23:59.035Z,2288.00
2018-06-29T18:24:58.921Z,2268.00
2018-06-29T18:26:51.632Z,2236.00
2018-06-29T18:27:51.522Z,2216.00
2018-06-29T18:29:44.227Z,2176.00
2018-06-29T18:30:44.121Z,2160.00
2018-06-29T18:32:36.834Z,2112.00
2018-06-29T18:33:36.720Z,2084.00
2018-06-29T18:35:29.408Z,2040.00
2018-06-29T18:36:29.314Z,2040.00
2018-06-29T18:38:22.024Z,1944.00
2018-06-29T18:39:21.911Z,1920.00
2018-06-29T18:41:15.604Z,1888.00
2018-06-29T18:42:15.503Z,1888.00
2018-06-29T18:44:08.207Z,1808.00
2018-06-29T18:45:08.101Z,1800.00
2018-06-29T18:47:00.812Z,1732.00
2018-06-29T18:48:00.687Z,1712.00
2018-06-29T18:49:53.389Z,1656.00
2018-06-29T18:50:53.277Z,1640.00
2018-06-29T18:52:46.006Z,1608.00
2018-06-29T18:53:45.936Z,1608.00
2018-06-29T18:55:38.576Z,1508.00
2018-06-29T18:56:38.474Z,1488.00
2018-06-29T18:58:31.185Z,1432.00
2018-06-29T18:59:31.068Z,1412.00
2018-06-29T19:01:23.783Z,1360.00
2018-06-29T19:02:23.658Z,1336.00
2018-06-29T19:04:16.375Z,1300.00
2018-06-29T19:05:16.255Z,1300.00
2018-06-29T19:07:08.980Z,1212.00
2018-06-29T19:08:08.846Z,1192.00
2018-06-29T19:10:01.623Z,1152.00
2018-06-29T19:11:01.524Z,1152.00
2018-06-29T19:12:54.251Z,1060.00
2018-06-29T19:13:54.141Z,1044.00
2018-06-29T19:15:46.827Z,1004.00
2018-06-29T19:16:46.729Z,1004.00
2018-06-29T19:18:39.443Z,916.00
2018-06-29T19:19:39.329Z,892.00
2018-06-29T19:21:32.062Z,860.00
2018-06-29T19:22:31.916Z,860.00
2018-06-29T19:24:24.613Z,772.00
2018-06-29T19:25:24.527Z,752.00
2018-06-29T19:27:17.239Z,716.00
2018-06-29T19:28:17.114Z,716.00
2018-06-29T19:30:09.806Z,632.00
2018-06-29T19:31:09.714Z,612.00
2018-06-29T19:33:02.449Z,576.00
2018-06-29T19:34:02.312Z,576.00
2018-06-29T19:35:55.040Z,500.00
2018-06-29T19:36:54.912Z,480.00
2018-06-29T19:38:47.647Z,448.00
2018-06-29T19:39:47.568Z,448.00
2018-06-29T19:41:40.197Z,380.00
2018-06-29T19:42:40.123Z,364.00
2018-06-29T19:44:32.809Z,336.00
2018-06-29T19:45:32.697Z,336.00
2018-06-29T19:47:25.398Z,280.00
2018-06-29T19:48:25.290Z,264.00
2018-06-29T19:50:18.007Z,240.00
2018-06-29T19:51:17.873Z,240.00
2018-06-29T19:53:10.573Z,196.00
2018-06-29T19:54:10.469Z,184.00
2018-06-29T19:56:03.226Z,164.00
2018-06-29T19:57:03.073Z,164.00
2018-06-29T19:58:55.831Z,164.00
2018-06-29T19:59:55.694Z,164.00
2018-06-29T20:01:48.399Z,164.00
2018-06-29T20:02:48.335Z,164.00
2018-06-29T20:04:41.021Z,164.00
2018-06-29T20:05:40.872Z,164.00
2018-06-29T20:07:33.616Z,164.00
2018-06-29T20:08:33.489Z,164.00
2018-06-29T20:10:26.188Z,164.00
2018-06-29T20:11:26.104Z,164.00
2018-06-29T20:13:18.806Z,164.00
2018-06-29T20:14:18.675Z,164.00
2018-06-29T20:16:11.379Z,164.00
2018-06-29T20:17:11.278Z,164.00
2018-06-29T20:19:03.988Z,164.00
2018-06-29T20:20:03.878Z,164.00
2018-06-29T20:21:56.592Z,164.00
2018-06-29T20:22:56.481Z,164.00
2018-06-29T20:24:49.201Z,164.00
2018-06-29T20:25:49.070Z,164.00
2018-06-29T20:27:41.759Z,164.00
2018-06-29T20:28:41.662Z,164.00
2018-06-29T20:30:34.393Z,164.00
2018-06-29T20:31:34.262Z,164.00
2018-06-29T20:33:26.962Z,164.00
2018-06-29T20:34:26.860Z,164.00
2018-06-29T20:36:19.577Z,164.00
2018-06-29T20:37:19.450Z,164.00
2018-06-29T20:39:12.149Z,164.00
2018-06-29T20:40:12.046Z,164.00
2018-06-29T20:42:04.774Z,164.00
2018-06-29T20:43:04.641Z,164.00
2018-06-29T20:44:57.335Z,164.00
2018-06-29T20:45:57.248Z,164.00
2018-06-29T20:47:49.976Z,164.00
2018-06-29T20:48:49.833Z,164.00
2018-06-29T20:50:42.516Z,164.00
2018-06-29T20:51:42.418Z,164.00
2018-06-29T20:53:35.139Z,164.00
2018-06-29T20:54:35.022Z,164.00
2018-06-29T20:56:27.701Z,164.00
2018-06-29T20:57:27.592Z,164.00
2018-06-29T20:59:20.326Z,164.00
2018-06-29T21:00:20.217Z,164.00
2018-06-29T21:02:12.907Z,164.00
2018-06-29T21:03:12.808Z,164.00
2018-06-29T21:05:05.522Z,164.00
2018-06-29T21:06:05.397Z,164.00
2018-06-29T21:07:58.110Z,164.00
2018-06-29T21:08:58.015Z,164.00
2018-06-29T21:10:50.760Z,164.00
2018-06-29T21:11:50.610Z,164.00
2018-06-29T21:13:43.332Z,164.00
2018-06-29T21:14:43.215Z,164.00
2018-06-29T21:16:35.937Z,164.00
2018-06-29T21:17:35.805Z,164.00
2018-06-29T21:19:28.507Z,164.00
2018-06-29T21:20:28.407Z,164.00
2018-06-29T21:22:21.115Z,164.00
2018-06-29T21:23:20.992Z,164.00
2018-06-29T21:25:13.773Z,164.00
2018-06-29T21:26:13.580Z,164.00
2018-06-29T21:28:06.319Z,164.00